Time;durP1;ratioP1;P1;durP2;ratioP2;P2;SDS_P1;SDS_P2;PMS_P1;PMS_P2;Temp;Humidity;BMP_temperature;BMP_pressure;BME280_temperature;BME280_humidity;BME280_pressure;Samples;Min_cycle;Max_cycle;Signal;HPM_P1;HPM_P2
2022/01/19 00:00:40;;;;;;;12.47;5.87;;;;;;;6.00;40.72;99830.73;1727048;82;20952;-71
2022/01/19 00:03:09;;;;;;;13.43;6.35;;;;;;;6.13;40.95;99835.39;1745603;81;21139;-64
2022/01/19 00:05:36;;;;;;;14.40;7.50;;;;;;;6.38;40.63;99824.02;1750190;81;21123;-63
2022/01/19 00:08:04;;;;;;;12.53;6.60;;;;;;;6.84;40.05;99821.58;1749249;81;21044;-62
2022/01/19 00:10:31;;;;;;;11.28;5.35;;;;;;;6.81;40.07;99823.20;1749785;81;20969;-63
2022/01/19 00:13:01;;;;;;;12.82;6.35;;;;;;;7.00;39.79;99825.87;1748209;81;20918;-65
2022/01/19 00:15:30;;;;;;;13.08;6.65;;;;;;;6.96;39.58;99825.40;1752333;81;21269;-65
2022/01/19 00:18:02;;;;;;;13.20;6.65;;;;;;;6.41;40.53;99832.76;1747691;81;21285;-65
2022/01/19 00:20:34;;;;;;;10.98;6.08;;;;;;;6.70;40.27;99833.45;1746135;80;21032;-64
2022/01/19 00:23:04;;;;;;;13.90;5.90;;;;;;;6.58;40.40;99827.83;1751516;81;21368;-70
2022/01/19 00:25:33;;;;;;;11.40;5.10;;;;;;;6.77;40.04;99838.77;1751217;81;21056;-64
2022/01/19 00:27:59;;;;;;;10.45;5.08;;;;;;;6.92;39.74;99833.20;1747971;81;20922;-63
2022/01/19 00:30:27;;;;;;;9.28;4.65;;;;;;;6.70;39.86;99828.76;1752947;81;21134;-63
2022/01/19 00:32:54;;;;;;;9.95;5.20;;;;;;;6.66;40.35;99828.28;1747816;81;20958;-68
2022/01/19 00:35:23;;;;;;;9.10;4.40;;;;;;;6.68;40.07;99828.14;1748820;81;21005;-63
2022/01/19 00:37:50;;;;;;;7.40;3.95;;;;;;;7.37;39.55;99821.77;1748723;81;21056;-62
2022/01/19 00:40:17;;;;;;;6.80;3.58;;;;;;;7.63;39.35;99821.42;1748562;81;20989;-62
2022/01/19 00:42:46;;;;;;;7.15;3.10;;;;;;;7.25;39.58;99829.94;1742850;81;22384;-62
2022/01/19 00:45:14;;;;;;;5.85;3.30;;;;;;;6.87;40.55;99841.97;1744971;81;21534;-68
2022/01/19 00:47:42;;;;;;;7.47;3.85;;;;;;;7.03;40.56;99834.11;1747891;81;21065;-64
2022/01/19 00:50:11;;;;;;;4.75;2.65;;;;;;;7.16;40.34;99822.38;1744221;81;21143;-62
2022/01/19 00:52:38;;;;;;;5.55;2.90;;;;;;;7.57;39.94;99825.50;1746737;81;20974;-62
2022/01/19 00:55:07;;;;;;;6.92;2.90;;;;;;;7.43;39.73;99816.70;1743082;81;21144;-70
2022/01/19 00:57:34;;;;;;;5.42;2.75;;;;;;;7.56;39.56;99811.73;1742720;81;21012;-64
2022/01/19 01:00:05;;;;;;;7.12;3.70;;;;;;;7.22;39.95;99822.99;1742374;81;21008;-62
2022/01/19 01:02:32;;;;;;;6.83;3.40;;;;;;;6.97;40.46;99824.91;1743760;81;20965;-62
2022/01/19 01:04:59;;;;;;;6.65;3.35;;;;;;;7.24;40.54;99831.42;1733390;81;20972;-62
2022/01/19 01:07:27;;;;;;;7.25;3.27;;;;;;;7.06;40.82;99827.30;1722728;82;21076;-61
2022/01/19 01:09:55;;;;;;;7.03;3.80;;;;;;;7.28;40.77;99822.32;1730773;82;20990;-62
2022/01/19 01:12:31;;;;;;;10.55;4.87;;;;;;;7.46;40.50;99822.02;1731500;81;21476;-62
2022/01/19 01:20:26;;;;;;;12.33;6.25;;;;;;;7.80;39.97;99838.45;1731334;82;21163;-64
2022/01/19 01:22:53;;;;;;;11.83;5.97;;;;;;;7.31;40.39;99844.82;1729835;82;20909;-66
2022/01/19 01:25:22;;;;;;;12.40;5.90;;;;;;;7.34;40.50;99843.66;1724196;82;20957;-69
2022/01/19 01:27:49;;;;;;;12.68;6.25;;;;;;;7.50;40.28;99846.16;1727207;82;20998;-68
2022/01/19 01:30:17;;;;;;;11.05;5.60;;;;;;;7.42;40.40;99845.38;1726094;82;21039;-62
2022/01/19 01:32:43;;;;;;;12.25;5.45;;;;;;;7.31;40.48;99845.28;1731562;81;21327;-64
2022/01/19 01:35:10;;;;;;;10.45;5.22;;;;;;;7.32;40.58;99843.03;1728988;82;20993;-68
2022/01/19 01:37:39;;;;;;;7.97;4.15;;;;;;;7.34;40.67;99851.92;1729128;82;21097;-62
2022/01/19 01:40:08;;;;;;;8.13;4.20;;;;;;;7.27;40.83;99853.09;1727551;81;21079;-67
2022/01/19 01:42:35;;;;;;;8.60;3.75;;;;;;;7.40;40.74;99857.23;1711108;82;21141;-62
2022/01/19 01:45:03;;;;;;;7.22;3.37;;;;;;;7.52;40.76;99858.44;1735491;82;21174;-71
2022/01/19 01:47:40;;;;;;;7.83;3.45;;;;;;;7.24;41.09;99863.33;1735418;82;20978;-64
2022/01/19 01:55:21;;;;;;;7.35;3.40;;;;;;;7.48;41.20;99868.84;1736438;82;20915;-63
2022/01/19 01:57:48;;;;;;;6.08;3.47;;;;;;;7.51;41.38;99866.41;1735167;82;21159;-71
2022/01/19 02:00:21;;;;;;;6.45;2.98;;;;;;;7.32;41.75;99858.59;1721676;83;21022;-63
2022/01/19 02:02:47;;;;;;;;;;;;;;;7.31;41.86;99849.17;1739148;82;20955;-69
2022/01/19 02:05:21;;;;;;;9.65;3.72;;;;;;;7.49;41.73;99859.28;1664462;84;20279;-63
2022/01/19 02:08:01;;;;;;;7.08;4.00;;;;;;;7.47;41.89;99862.05;1664615;84;21003;-69
2022/01/19 02:15:51;;;;;;;7.75;3.47;;;;;;;7.77;41.69;99859.58;1727600;81;21053;-63
2022/01/19 02:23:51;;;;;;;9.38;4.58;;;;;;;8.13;41.17;99862.33;1755484;81;21204;-70
2022/01/19 02:26:49;;;;;;;8.68;4.37;;;;;;;7.71;41.97;99860.27;1755670;81;20911;-63
2022/01/19 02:29:08;;;;;;;9.30;4.87;;;;;;;7.64;42.22;99864.53;1750222;81;21527;-64
2022/01/19 02:42:51;;;;;;;9.28;4.87;;;;;;;7.99;41.98;99863.94;1751331;81;20978;-63
2022/01/19 02:50:33;;;;;;;7.47;4.47;;;;;;;8.22;41.91;99866.48;1746916;80;21166;-71
2022/01/19 02:52:59;;;;;;;8.45;4.55;;;;;;;8.31;41.72;99852.91;1747138;81;21076;-64
2022/01/19 02:55:26;;;;;;;7.42;3.87;;;;;;;8.56;41.52;99865.66;1753372;81;20957;-63
2022/01/19 02:57:55;;;;;;;8.38;4.75;;;;;;;8.30;41.45;99875.98;1753680;81;20979;-64
2022/01/19 03:08:47;;;;;;;6.50;3.95;;;;;;;7.90;41.12;99876.64;1737875;82;21610;-62
2022/01/19 03:11:19;;;;;;;6.67;4.22;;;;;;;7.96;40.74;99879.05;1738173;82;20954;-63
2022/01/19 03:13:49;;;;;;;8.17;4.13;;;;;;;8.04;40.24;99889.36;1712542;82;21473;-64
2022/01/19 03:16:19;;;;;;;8.45;4.65;;;;;;;8.04;40.24;99889.36;1736748;82;21471;-65
2022/01/19 03:18:48;;;;;;;8.20;4.55;;;;;;;8.03;40.24;99889.85;1738826;82;21067;-63
2022/01/19 03:21:18;;;;;;;7.47;4.53;;;;;;;8.27;39.80;99890.61;1735006;82;20972;-62
2022/01/19 03:23:48;;;;;;;6.97;4.35;;;;;;;8.38;39.52;99891.52;1738416;82;20981;-66
2022/01/19 03:26:16;;;;;;;7.33;4.22;;;;;;;8.42;39.58;99889.36;1731371;81;21401;-65
2022/01/19 03:29:03;;;;;;;7.37;4.05;;;;;;;8.22;39.70;99888.55;1675109;84;21760;-64
2022/01/19 03:31:32;;;;;;;6.58;3.15;;;;;;;8.18;39.61;99902.03;1677925;85;21014;-70
2022/01/19 03:33:59;;;;;;;7.58;4.55;;;;;;;7.86;40.13;99905.23;1698953;82;22289;-64
2022/01/19 03:36:26;;;;;;;6.70;4.20;;;;;;;7.77;40.31;99916.66;1737366;82;21056;-63
2022/01/19 03:38:53;;;;;;;6.60;4.30;;;;;;;7.90;40.00;99924.66;1735384;82;20879;-63
2022/01/19 03:41:20;;;;;;;8.30;4.42;;;;;;;7.91;39.89;99938.44;1736397;82;22070;-71
2022/01/19 03:43:47;;;;;;;7.78;4.78;;;;;;;7.71;40.10;99934.20;1737209;82;20986;-63
2022/01/19 03:46:16;;;;;;;8.38;4.45;;;;;;;7.36;40.29;99938.94;1736243;82;21092;-62
2022/01/19 03:51:12;;;;;;;7.47;4.62;;;;;;;7.43;40.34;99941.67;1733822;81;21574;-63
2022/01/19 03:53:39;;;;;;;6.65;3.85;;;;;;;7.65;40.21;99941.36;1736521;82;21149;-64
2022/01/19 03:56:07;;;;;;;9.73;4.92;;;;;;;7.66;40.30;99947.70;1734629;82;21310;-64
2022/01/19 03:58:36;;;;;;;7.55;4.15;;;;;;;7.66;40.30;99954.17;1738410;82;20970;-63
2022/01/19 04:01:06;;;;;;;7.25;4.00;;;;;;;7.98;40.02;99962.22;1714255;79;21063;-62
2022/01/19 04:06:22;;;;;;;7.90;3.40;;;;;;;7.68;40.02;99964.38;1641427;85;21189;-65
2022/01/19 04:08:45;;;;;;;6.30;3.77;;;;;;;7.62;40.11;99965.88;1673847;85;21592;-63
2022/01/19 04:11:16;;;;;;;5.90;3.52;;;;;;;7.76;40.14;99962.53;1673892;85;21111;-66
2022/01/19 04:16:29;;;;;;;6.85;3.62;;;;;;;7.65;40.32;99964.70;1674219;85;21019;-64
2022/01/19 04:19:16;;;;;;;6.50;3.22;;;;;;;7.89;39.94;99965.87;1674828;85;21109;-63
2022/01/19 04:21:31;;;;;;;7.50;3.87;;;;;;;8.04;39.46;99971.13;1671801;85;20988;-63
2022/01/19 04:23:58;;;;;;;8.80;4.53;;;;;;;7.84;39.60;99976.43;1675115;85;21559;-63
2022/01/19 04:26:24;;;;;;;7.30;3.67;;;;;;;8.11;39.43;99982.92;1673931;85;21016;-64
2022/01/19 04:28:52;;;;;;;7.15;3.47;;;;;;;8.16;39.35;99987.09;1672759;85;21071;-64
2022/01/19 04:31:19;;;;;;;8.00;3.75;;;;;;;8.36;38.99;99997.81;1671571;85;21145;-62
2022/01/19 04:33:46;;;;;;;5.65;3.55;;;;;;;7.46;40.02;99999.19;1673577;85;21086;-63
2022/01/19 04:36:30;;;;;;;4.62;2.77;;;;;;;7.81;39.66;100003.55;1674208;85;21209;-63
2022/01/19 04:44:51;;;;;;;6.45;3.45;;;;;;;8.15;39.03;100016.64;1673847;85;21172;-72
2022/01/19 05:06:10;;;;;;;6.35;3.75;;;;;;;8.66;38.02;100023.41;1673590;85;21510;-62
2022/01/19 05:08:54;;;;;;;6.15;3.40;;;;;;;8.68;38.03;100019.66;1648349;85;21017;-70
2022/01/19 05:13:56;;;;;;;7.45;3.67;;;;;;;8.66;37.99;100036.39;1673540;84;21111;-62
2022/01/19 05:16:25;;;;;;;7.28;3.62;;;;;;;8.82;37.88;100040.64;1672682;84;21070;-65
2022/01/19 05:18:52;;;;;;;7.15;3.87;;;;;;;8.91;37.65;100041.70;1673355;84;21150;-66
2022/01/19 05:21:21;;;;;;;8.10;3.87;;;;;;;8.98;37.29;100038.70;1673080;85;21569;-71
2022/01/19 05:23:49;;;;;;;7.55;4.00;;;;;;;9.16;37.11;100042.73;1647545;85;21157;-63
2022/01/19 05:26:16;;;;;;;6.25;3.33;;;;;;;9.09;37.08;100040.06;1673973;84;21598;-70
2022/01/19 05:28:47;;;;;;;7.10;3.40;;;;;;;8.88;37.38;100046.44;1673494;84;21009;-65
2022/01/19 05:31:15;;;;;;;7.15;3.80;;;;;;;9.00;37.17;100045.81;1673103;84;21094;-69
2022/01/19 05:33:42;;;;;;;8.45;4.37;;;;;;;8.73;37.44;100050.30;1673249;84;21056;-64
2022/01/19 05:36:11;;;;;;;8.75;4.72;;;;;;;8.71;37.46;100049.66;1673766;84;21155;-65
2022/01/19 05:38:45;;;;;;;6.95;4.42;;;;;;;8.76;37.41;100050.77;1670256;84;21107;-63
2022/01/19 05:41:14;;;;;;;7.87;4.45;;;;;;;8.97;37.14;100051.86;1671733;84;21004;-69
2022/01/19 05:43:42;;;;;;;7.10;3.42;;;;;;;9.11;36.98;100058.08;1673701;84;21061;-62
2022/01/19 05:46:09;;;;;;;7.78;4.08;;;;;;;9.11;36.87;100063.27;1671512;84;21134;-62
2022/01/19 05:48:37;;;;;;;6.62;3.92;;;;;;;9.19;36.63;100054.09;1672914;84;21188;-63
2022/01/19 05:51:04;;;;;;;16.42;5.10;;;;;;;9.66;35.85;100062.00;1672016;84;21066;-62
2022/01/19 05:53:34;;;;;;;6.17;3.55;;;;;;;9.64;35.63;100061.39;1669605;84;21046;-71
2022/01/19 05:56:05;;;;;;;7.60;4.13;;;;;;;9.85;35.42;100065.36;1671533;84;21427;-64
2022/01/19 05:58:36;;;;;;;8.05;4.30;;;;;;;9.82;35.53;100076.62;1673904;84;21115;-62
2022/01/19 06:01:03;;;;;;;7.90;4.60;;;;;;;9.78;35.55;100082.69;1673406;84;21168;-69
2022/01/19 06:03:32;;;;;;;8.90;4.83;;;;;;;9.61;35.75;100085.16;1670551;84;21598;-70
2022/01/19 06:06:10;;;;;;;6.03;3.92;;;;;;;9.89;35.39;100083.52;1581103;89;21117;-64
2022/01/19 06:08:42;;;;;;;7.72;4.28;;;;;;;9.41;35.75;100088.31;1670580;84;21244;-67
2022/01/19 06:11:09;;;;;;;8.33;4.12;;;;;;;9.49;35.89;100092.13;1671922;84;21124;-66
2022/01/19 06:13:37;;;;;;;6.50;3.95;;;;;;;9.60;35.84;100099.17;1670951;84;21130;-69
2022/01/19 06:16:04;;;;;;;7.12;3.95;;;;;;;9.46;35.79;100104.68;1674862;85;21019;-65
2022/01/19 06:18:34;;;;;;;11.65;5.97;;;;;;;9.55;35.72;100110.63;1674642;85;21439;-69
2022/01/19 06:21:06;;;;;;;14.87;6.37;;;;;;;9.63;35.50;100110.03;1674886;85;21748;-66
2022/01/19 06:23:37;;;;;;;8.68;4.90;;;;;;;9.57;35.49;100124.25;1674105;85;20980;-66
2022/01/19 06:26:06;;;;;;;12.98;6.33;;;;;;;9.64;35.41;100118.14;1650242;85;20989;-66
2022/01/19 06:28:34;;;;;;;22.85;11.03;;;;;;;9.60;35.43;100126.00;1673857;85;21549;-66
2022/01/19 06:31:01;;;;;;;26.57;11.85;;;;;;;9.52;35.58;100129.19;1674082;85;21158;-68
2022/01/19 06:33:28;;;;;;;15.68;7.67;;;;;;;9.73;35.46;100140.97;1648978;85;20960;-70
2022/01/19 06:35:55;;;;;;;13.83;8.15;;;;;;;9.68;35.42;100138.91;1648317;85;21079;-65
2022/01/19 06:38:33;;;;;;;9.80;5.00;;;;;;;9.57;35.51;100141.16;1609843;87;21167;-67
2022/01/19 06:41:04;;;;;;;;;;;;;;;9.83;35.76;100155.03;1676565;85;20974;-65
2022/01/19 06:43:33;;;;;;;7.67;3.90;;;;;;;9.51;35.80;100163.52;1671857;85;20202;-70
2022/01/19 06:46:01;;;;;;;7.05;3.72;;;;;;;9.63;35.87;100165.18;1673898;85;21011;-66
2022/01/19 06:48:28;;;;;;;8.43;5.50;;;;;;;9.95;35.25;100170.00;1673729;85;21052;-65
2022/01/19 06:50:58;;;;;;;7.62;3.77;;;;;;;9.86;35.08;100174.20;1674490;85;21016;-68
2022/01/19 06:53:31;;;;;;;9.55;4.20;;;;;;;9.57;35.83;100181.00;1663833;85;20975;-66
2022/01/19 06:56:19;;;;;;;8.08;4.45;;;;;;;9.80;35.78;100179.62;1673728;85;21058;-67
2022/01/19 06:58:49;;;;;;;8.80;4.90;;;;;;;9.93;35.29;100178.51;1674117;85;21134;-69
2022/01/19 07:01:20;;;;;;;9.75;4.17;;;;;;;9.89;35.39;100181.66;1672473;85;20953;-70
2022/01/19 07:03:51;;;;;;;;;;;;;;;9.72;35.42;100194.03;1638818;85;21746;-65
2022/01/19 07:06:22;;;;;;;7.22;3.98;;;;;;;10.06;34.88;100196.59;1676948;85;20548;-67
2022/01/19 07:09:08;;;;;;;7.90;4.20;;;;;;;10.08;37.35;100194.13;1676960;85;21655;-67
2022/01/19 07:11:38;;;;;;;6.80;4.10;;;;;;;9.92;38.94;100193.80;1655050;85;21570;-67
2022/01/19 07:14:05;;;;;;;8.65;4.62;;;;;;;10.50;38.61;100184.02;1677601;85;20988;-65
2022/01/19 07:16:32;;;;;;;8.23;4.00;;;;;;;10.38;38.70;100184.50;1677467;85;22213;-66
2022/01/19 07:18:59;;;;;;;9.33;4.92;;;;;;;10.62;37.88;100182.54;1676831;85;21027;-69
2022/01/19 07:21:28;;;;;;;6.83;3.85;;;;;;;10.85;37.38;100176.64;1677038;84;21071;-71
2022/01/19 07:23:57;;;;;;;7.03;3.93;;;;;;;10.38;37.69;100187.10;1678667;84;21423;-67
2022/01/19 07:26:24;;;;;;;6.65;3.55;;;;;;;10.41;37.59;100189.31;1676706;84;21588;-65
2022/01/19 07:28:53;;;;;;;7.50;4.08;;;;;;;10.35;36.81;100179.64;1677249;84;22113;-71
2022/01/19 07:31:21;;;;;;;10.05;4.87;;;;;;;10.43;36.57;100183.94;1675632;84;20995;-68
2022/01/19 07:33:50;;;;;;;11.78;5.37;;;;;;;10.16;36.69;100193.22;1674982;84;21575;-66
2022/01/19 07:36:18;;;;;;;13.95;6.72;;;;;;;10.22;36.58;100180.75;1677765;84;20955;-67
2022/01/19 07:38:47;;;;;;;10.18;4.85;;;;;;;10.59;36.07;100177.69;1675896;84;21110;-64
2022/01/19 07:41:14;;;;;;;11.43;5.62;;;;;;;10.67;35.43;100174.96;1675279;84;22802;-67
2022/01/19 07:43:44;;;;;;;12.45;6.10;;;;;;;10.71;35.35;100182.72;1639868;85;21620;-63
2022/01/19 07:46:24;;;;;;;10.15;5.47;;;;;;;10.50;35.35;100182.72;1578079;86;21161;-62
2022/01/19 07:48:53;;;;;;;10.95;6.05;;;;;;;10.45;35.24;100184.08;1626457;86;20996;-61
2022/01/19 07:51:30;;;;;;;9.95;5.28;;;;;;;10.59;35.24;100182.41;1570392;89;22440;-60
2022/01/19 07:54:08;;;;;;;11.28;6.45;;;;;;;10.87;34.52;100186.88;1608538;86;21169;-62
2022/01/19 07:56:52;;;;;;;10.30;5.47;;;;;;;10.91;34.34;100179.83;1559654;90;21073;-62
2022/01/19 07:59:20;;;;;;;9.50;4.97;;;;;;;10.74;34.55;100182.86;1601198;87;21155;-61
2022/01/19 08:01:56;;;;;;;9.13;5.35;;;;;;;10.81;34.51;100186.34;1625726;86;21216;-65
2022/01/19 08:04:43;;;;;;;9.88;5.30;;;;;;;11.01;34.15;100189.13;1587214;88;21278;-63
2022/01/19 08:07:13;;;;;;;7.50;4.60;;;;;;;11.27;33.70;100193.76;1630836;86;21182;-64
2022/01/19 08:09:43;;;;;;;7.25;4.25;;;;;;;11.23;33.63;100199.85;1647558;84;21141;-65
2022/01/19 08:12:13;;;;;;;11.15;5.90;;;;;;;11.41;33.33;100190.27;1670453;84;21054;-65
2022/01/19 08:14:44;;;;;;;12.65;7.35;;;;;;;11.34;33.57;100184.18;1669237;84;20948;-65
2022/01/19 08:17:13;;;;;;;8.33;5.10;;;;;;;11.50;33.24;100181.78;1671889;84;21518;-69
2022/01/19 08:19:42;;;;;;;12.55;7.12;;;;;;;11.42;33.29;100178.31;1641732;84;21216;-65
2022/01/19 08:22:09;;;;;;;10.13;5.42;;;;;;;11.29;33.25;100178.70;1671139;84;21126;-66
2022/01/19 08:24:41;;;;;;;11.33;7.00;;;;;;;11.02;33.63;100183.70;1673078;84;22628;-65
2022/01/19 08:27:11;;;;;;;8.83;5.65;;;;;;;11.08;33.75;100186.88;1672174;84;21496;-64
2022/01/19 08:29:41;;;;;;;7.80;4.77;;;;;;;10.76;34.11;100179.08;1670518;84;21059;-65
2022/01/19 08:32:09;;;;;;;11.05;6.87;;;;;;;10.64;34.16;100185.25;1672345;84;22191;-64
2022/01/19 08:34:47;;;;;;;13.43;5.62;;;;;;;10.76;33.85;100189.52;1658842;84;21505;-65
2022/01/19 08:37:20;;;;;;;10.23;6.05;;;;;;;10.94;33.53;100182.03;1672651;84;21731;-64
2022/01/19 08:39:48;;;;;;;14.03;6.78;;;;;;;10.93;33.17;100190.86;1671292;85;21842;-64
2022/01/19 08:42:15;;;;;;;11.15;5.80;;;;;;;10.64;33.16;100181.34;1673553;85;21365;-64
2022/01/19 08:44:44;;;;;;;12.05;6.85;;;;;;;10.46;33.35;100197.41;1673983;85;22217;-64
2022/01/19 08:47:20;;;;;;;11.48;6.83;;;;;;;10.32;33.92;100203.95;1672046;85;21015;-65
2022/01/19 08:50:09;;;;;;;13.38;5.87;;;;;;;10.50;33.66;100208.28;1673183;85;21010;-63
2022/01/19 08:52:38;;;;;;;13.00;7.12;;;;;;;10.30;33.62;100209.33;1667130;84;21063;-64
2022/01/19 08:55:10;;;;;;;14.23;6.22;;;;;;;10.14;33.69;100207.70;1671604;85;21085;-65
2022/01/19 08:57:37;;;;;;;10.63;5.08;;;;;;;10.06;33.66;100211.71;1673332;85;21464;-63
2022/01/19 09:00:10;;;;;;;9.38;5.28;;;;;;;10.15;33.65;100204.61;1673693;85;21482;-64
2022/01/19 09:02:37;;;;;;;9.55;5.05;;;;;;;10.20;33.66;100204.39;1673726;85;21345;-63
2022/01/19 09:05:07;;;;;;;9.08;4.40;;;;;;;10.28;33.58;100213.13;1672979;85;21107;-63
2022/01/19 09:07:36;;;;;;;9.90;4.08;;;;;;;10.34;33.54;100201.48;1673154;85;21081;-64
2022/01/19 09:10:06;;;;;;;7.37;4.10;;;;;;;10.62;33.29;100204.20;1673613;84;21361;-63
2022/01/19 09:12:36;;;;;;;8.93;4.87;;;;;;;10.48;33.52;100207.14;1672610;84;21087;-63
2022/01/19 09:15:06;;;;;;;7.00;4.03;;;;;;;10.58;33.68;100213.87;1667301;84;21500;-63
2022/01/19 09:17:34;;;;;;;13.05;6.55;;;;;;;10.66;33.51;100220.28;1672245;84;21591;-63
2022/01/19 09:20:05;;;;;;;13.53;8.00;;;;;;;10.51;33.45;100220.31;1672797;84;21113;-63
2022/01/19 09:22:33;;;;;;;9.68;4.97;;;;;;;10.47;33.47;100227.69;1671581;84;27247;-63
2022/01/19 09:25:00;;;;;;;9.15;4.90;;;;;;;10.29;33.62;100229.06;1669923;84;21111;-66
2022/01/19 09:27:27;;;;;;;8.48;5.05;;;;;;;10.53;33.55;100229.23;1672691;84;22403;-66
2022/01/19 09:29:56;;;;;;;6.65;3.50;;;;;;;10.68;33.51;100224.80;1671681;84;21105;-65
2022/01/19 09:32:23;;;;;;;8.58;4.78;;;;;;;10.76;33.16;100226.48;1671458;84;20916;-68
2022/01/19 09:35:06;;;;;;;8.08;4.03;;;;;;;10.97;33.13;100225.20;1670893;84;21148;-68
2022/01/19 09:37:25;;;;;;;8.80;4.60;;;;;;;10.89;33.02;100228.73;1669896;84;21133;-67
2022/01/19 09:39:56;;;;;;;9.75;4.30;;;;;;;10.88;32.88;100239.37;1670806;84;21102;-67
2022/01/19 09:42:24;;;;;;;9.40;4.30;;;;;;;10.56;33.27;100241.41;1672846;84;21034;-66
2022/01/19 09:44:52;;;;;;;7.80;4.90;;;;;;;10.55;33.33;100237.20;1671978;84;21138;-67
2022/01/19 09:47:21;;;;;;;9.53;4.90;;;;;;;10.24;33.49;100241.31;1672030;84;21360;-66
2022/01/19 09:49:50;;;;;;;8.08;4.35;;;;;;;10.05;34.18;100252.27;1669146;84;21003;-66
2022/01/19 09:52:20;;;;;;;6.95;4.45;;;;;;;10.71;33.88;100243.98;1671326;84;21068;-67
2022/01/19 09:54:48;;;;;;;6.80;3.80;;;;;;;10.89;33.08;100240.47;1671952;84;21502;-69
2022/01/19 09:57:16;;;;;;;7.40;3.50;;;;;;;10.64;33.15;100243.10;1672479;85;21106;-67
2022/01/19 09:59:51;;;;;;;6.03;3.47;;;;;;;10.71;32.70;100246.09;1673722;85;22070;-67
2022/01/19 10:02:17;;;;;;;5.65;3.45;;;;;;;10.55;33.11;100239.80;1670499;84;21056;-66
2022/01/19 10:04:48;;;;;;;6.97;3.70;;;;;;;10.46;33.50;100242.22;1673276;84;21556;-67
2022/01/19 10:07:22;;;;;;;6.83;4.08;;;;;;;10.54;33.21;100244.71;1673167;85;21086;-66
2022/01/19 10:09:57;;;;;;;9.05;3.67;;;;;;;10.59;33.03;100238.95;1674384;84;22031;-64
2022/01/19 10:18:15;;;;;;;9.83;5.22;;;;;;;10.64;33.23;100244.41;1668502;84;21078;-67
2022/01/19 10:20:45;;;;;;;7.30;3.60;;;;;;;10.71;33.11;100247.39;1670828;84;21678;-64
2022/01/19 10:23:46;;;;;;;9.48;5.00;;;;;;;10.84;32.87;100258.48;1670680;85;21007;-66
2022/01/19 10:26:16;;;;;;;5.37;3.42;;;;;;;10.74;33.05;100256.66;1672292;84;21161;-65
2022/01/19 10:29:07;;;;;;;8.85;4.75;;;;;;;10.72;32.96;100262.57;1671963;84;21163;-66
2022/01/19 10:31:40;;;;;;;9.15;4.47;;;;;;;10.79;32.92;100269.95;1672116;84;22615;-66
2022/01/19 10:34:18;;;;;;;7.83;4.35;;;;;;;10.78;32.76;100265.73;1671124;84;21036;-66
2022/01/19 10:36:49;;;;;;;8.45;4.53;;;;;;;10.66;32.84;100269.31;1672855;84;21052;-63
2022/01/19 10:39:18;;;;;;;9.65;4.92;;;;;;;10.63;32.86;100271.47;1670312;84;21153;-67
2022/01/19 10:42:04;;;;;;;7.65;4.58;;;;;;;10.63;32.91;100271.47;1670808;84;22414;-63
2022/01/19 10:44:42;;;;;;;9.40;4.75;;;;;;;10.52;32.92;100270.64;1670237;84;21126;-66
2022/01/19 10:47:10;;;;;;;9.68;5.30;;;;;;;10.38;33.24;100274.86;1670474;84;21118;-64
2022/01/19 10:49:56;;;;;;;8.80;4.58;;;;;;;10.31;33.43;100283.11;1670971;84;21071;-64
2022/01/19 10:52:31;;;;;;;10.90;6.05;;;;;;;10.15;33.54;100283.58;1672785;84;21970;-68
2022/01/19 10:54:59;;;;;;;9.13;5.28;;;;;;;10.11;33.30;100293.21;1673550;84;21604;-63
2022/01/19 10:57:28;;;;;;;10.43;5.83;;;;;;;9.89;33.47;100285.31;1669473;84;20992;-64
2022/01/19 11:00:28;;;;;;;8.20;4.67;;;;;;;9.87;33.40;100296.88;1673836;85;21479;-62
2022/01/19 11:02:58;;;;;;;9.58;5.40;;;;;;;10.07;33.23;100294.06;1672728;84;21095;-64
2022/01/19 11:05:53;;;;;;;9.13;4.83;;;;;;;9.68;33.70;100303.39;1669502;84;21161;-63
2022/01/19 11:08:22;;;;;;;16.50;8.68;;;;;;;8.76;34.79;100299.45;1672755;84;21284;-64
2022/01/19 11:10:51;;;;;;;11.78;6.08;;;;;;;8.19;35.80;100312.13;1673854;84;21486;-63
2022/01/19 11:13:34;;;;;;;10.80;5.67;;;;;;;8.19;36.35;100306.94;1671663;84;20961;-68
2022/01/19 11:15:58;;;;;;;11.05;6.60;;;;;;;8.35;36.15;100312.56;1672422;84;21388;-63
2022/01/19 11:18:26;;;;;;;16.93;7.05;;;;;;;8.29;35.95;100317.12;1672404;84;21137;-64
2022/01/19 11:20:53;;;;;;;8.38;5.03;;;;;;;8.27;35.87;100312.59;1669178;84;20979;-67
2022/01/19 11:23:50;;;;;;;9.53;5.15;;;;;;;8.40;35.93;100310.30;1671984;84;21699;-68
2022/01/19 11:26:23;;;;;;;8.85;5.05;;;;;;;8.67;35.53;100310.36;1672157;84;20979;-66
2022/01/19 11:28:50;;;;;;;9.38;5.12;;;;;;;8.75;35.53;100310.34;1647486;84;21008;-65
2022/01/19 11:31:34;;;;;;;6.92;4.47;;;;;;;8.77;35.55;100308.86;1673053;84;21151;-64
2022/01/19 11:34:01;;;;;;;8.20;5.00;;;;;;;8.86;35.40;100307.83;1671238;84;21062;-66
2022/01/19 11:36:34;;;;;;;10.10;4.97;;;;;;;8.71;35.58;100312.13;1672392;84;21568;-64
2022/01/19 11:39:20;;;;;;;10.13;6.35;;;;;;;8.66;35.69;100311.84;1670026;84;21071;-66
2022/01/19 11:41:55;;;;;;;11.10;6.25;;;;;;;8.82;35.63;100318.25;1670723;84;21012;-65
2022/01/19 11:44:37;;;;;;;8.73;5.72;;;;;;;8.71;35.93;100317.33;1672216;84;21181;-64
2022/01/19 11:47:21;;;;;;;11.50;5.60;;;;;;;8.83;35.81;100319.09;1673642;84;21545;-62
2022/01/19 11:50:15;;;;;;;9.48;5.12;;;;;;;8.58;35.88;100317.06;1670672;84;20975;-64
2022/01/19 11:52:48;;;;;;;7.25;5.10;;;;;;;8.56;35.99;100317.72;1672406;84;21540;-64
2022/01/19 11:55:25;;;;;;;8.50;4.80;;;;;;;8.23;36.51;100322.50;1672366;84;21064;-64
2022/01/19 11:58:14;;;;;;;10.20;6.53;;;;;;;8.05;36.55;100321.88;1672324;84;21124;-65
2022/01/19 12:00:44;;;;;;;12.33;6.45;;;;;;;8.11;36.66;100321.73;1671348;84;21248;-66
2022/01/19 12:03:24;;;;;;;8.28;4.85;;;;;;;8.10;36.75;100321.38;1672083;84;21156;-64
2022/01/19 12:05:53;;;;;;;7.58;4.85;;;;;;;7.89;37.14;100328.41;1672621;84;21090;-64
2022/01/19 12:08:29;;;;;;;10.88;5.80;;;;;;;7.95;37.16;100333.73;1671113;84;21026;-68
2022/01/19 12:11:02;;;;;;;10.68;5.70;;;;;;;8.25;36.87;100332.71;1671380;85;21019;-65
2022/01/19 12:13:57;;;;;;;9.75;5.62;;;;;;;8.39;36.63;100339.86;1662949;84;22221;-64
2022/01/19 12:16:48;;;;;;;;;;;;;;;8.28;36.81;100343.58;1674057;84;21589;-63
2022/01/19 12:19:15;;;;;;;9.03;4.85;;;;;;;8.25;36.84;100347.80;1667398;84;20123;-66
2022/01/19 12:21:54;;;;;;;8.95;4.67;;;;;;;8.31;36.94;100348.94;1671645;84;21018;-63
2022/01/19 12:24:37;;;;;;;8.65;4.35;;;;;;;8.39;36.77;100352.84;1665681;84;21910;-64
2022/01/19 12:27:18;;;;;;;10.25;5.78;;;;;;;8.28;36.89;100355.27;1670356;84;22700;-67
2022/01/19 12:29:49;;;;;;;8.13;5.15;;;;;;;8.43;36.77;100359.33;1672979;84;21081;-66
2022/01/19 12:32:28;;;;;;;9.15;5.45;;;;;;;8.42;36.91;100362.10;1671661;84;21048;-63
2022/01/19 12:35:11;;;;;;;9.08;5.12;;;;;;;8.19;37.02;100368.45;1669417;84;21050;-68
2022/01/19 12:37:45;;;;;;;8.23;4.90;;;;;;;8.23;37.05;100367.95;1671936;84;21141;-66
2022/01/19 12:40:29;;;;;;;10.65;6.00;;;;;;;8.16;37.22;100377.86;1670555;84;21588;-67
2022/01/19 12:42:58;;;;;;;10.93;6.67;;;;;;;8.11;37.33;100384.04;1671138;84;21091;-61
2022/01/19 12:45:33;;;;;;;11.70;6.20;;;;;;;8.32;37.29;100382.21;1672609;84;20952;-67
2022/01/19 12:48:05;;;;;;;10.48;6.03;;;;;;;8.33;37.17;100385.93;1671894;84;21102;-69
2022/01/19 12:50:47;;;;;;;;;;;;;;;8.12;37.38;100377.86;1674597;84;21141;-67
2022/01/19 12:53:24;;;;;;;10.80;4.60;;;;;;;8.18;37.44;100383.68;1672277;84;20131;-67
2022/01/19 12:56:04;;;;;;;10.68;5.78;;;;;;;8.35;37.03;100385.29;1669707;84;21151;-68
2022/01/19 12:58:36;;;;;;;12.70;7.62;;;;;;;8.36;36.83;100391.30;1671812;84;21150;-67
2022/01/19 13:01:09;;;;;;;10.75;6.15;;;;;;;8.42;36.84;100386.28;1672063;84;21079;-67
2022/01/19 13:03:43;;;;;;;13.65;6.97;;;;;;;7.97;37.28;100392.80;1674121;84;22519;-70
2022/01/19 13:06:17;;;;;;;13.20;6.75;;;;;;;8.00;37.29;100388.58;1675998;84;21136;-68
2022/01/19 13:08:57;;;;;;;11.43;6.22;;;;;;;7.87;37.45;100387.43;1673252;84;21115;-70
2022/01/19 13:11:29;;;;;;;10.25;6.12;;;;;;;7.95;37.36;100396.02;1670765;84;22073;-69
2022/01/19 13:14:05;;;;;;;14.00;7.35;;;;;;;8.12;37.31;100394.25;1675744;84;21079;-68
2022/01/19 13:16:47;;;;;;;10.00;5.65;;;;;;;8.32;36.91;100399.09;1671546;84;22680;-67
2022/01/19 13:19:21;;;;;;;10.93;5.33;;;;;;;8.19;36.91;100403.50;1675103;84;21079;-67